sensor_id;sensor_type;location;lat;lon;timestamp;P1;durP1;ratioP1;P2;durP2;ratioP2
13588;SDS011;6865;52.552;13.434;2024-02-26T00:00:32;12.87;;;9.33;;
13588;SDS011;6865;52.552;13.434;2024-02-26T00:03:01;15.00;;;9.60;;
13588;SDS011;6865;52.552;13.434;2024-02-26T00:05:28;13.63;;;9.90;;
13588;SDS011;6865;52.552;13.434;2024-02-26T00:07:54;13.97;;;9.87;;
13588;SDS011;6865;52.552;13.434;2024-02-26T00:10:22;13.50;;;10.03;;
13588;SDS011;6865;52.552;13.434;2024-02-26T00:12:49;12.83;;;9.53;;
13588;SDS011;6865;52.552;13.434;2024-02-26T00:15:15;16.17;;;9.97;;
13588;SDS011;6865;52.552;13.434;2024-02-26T00:17:42;13.73;;;9.30;;
13588;SDS011;6865;52.552;13.434;2024-02-26T00:20:10;13.77;;;9.40;;
13588;SDS011;6865;52.552;13.434;2024-02-26T00:22:37;12.20;;;9.37;;
13588;SDS011;6865;52.552;13.434;2024-02-26T00:25:04;14.97;;;9.80;;
13588;SDS011;6865;52.552;13.434;2024-02-26T00:27:31;14.40;;;9.40;;
13588;SDS011;6865;52.552;13.434;2024-02-26T00:29:57;25.77;;;15.50;;
13588;SDS011;6865;52.552;13.434;2024-02-26T00:32:24;33.53;;;22.50;;
13588;SDS011;6865;52.552;13.434;2024-02-26T00:34:51;25.70;;;18.40;;
13588;SDS011;6865;52.552;13.434;2024-02-26T00:37:18;27.03;;;16.93;;
13588;SDS011;6865;52.552;13.434;2024-02-26T00:39:45;27.13;;;18.07;;
13588;SDS011;6865;52.552;13.434;2024-02-26T00:42:12;23.33;;;15.70;;
13588;SDS011;6865;52.552;13.434;2024-02-26T00:44:39;13.37;;;10.30;;
13588;SDS011;6865;52.552;13.434;2024-02-26T00:47:06;14.83;;;9.17;;
13588;SDS011;6865;52.552;13.434;2024-02-26T00:49:32;13.37;;;9.37;;
13588;SDS011;6865;52.552;13.434;2024-02-26T00:51:59;14.67;;;9.60;;
13588;SDS011;6865;52.552;13.434;2024-02-26T00:54:26;15.40;;;9.60;;
13588;SDS011;6865;52.552;13.434;2024-02-26T00:56:53;13.53;;;9.07;;
13588;SDS011;6865;52.552;13.434;2024-02-26T00:59:19;12.67;;;8.60;;
13588;SDS011;6865;52.552;13.434;2024-02-26T01:01:46;15.23;;;9.83;;
13588;SDS011;6865;52.552;13.434;2024-02-26T01:04:13;11.50;;;8.10;;
13588;SDS011;6865;52.552;13.434;2024-02-26T01:06:39;13.03;;;8.63;;
13588;SDS011;6865;52.552;13.434;2024-02-26T01:09:06;13.17;;;8.37;;
13588;SDS011;6865;52.552;13.434;2024-02-26T01:11:34;13.90;;;9.37;;
13588;SDS011;6865;52.552;13.434;2024-02-26T01:14:01;11.07;;;8.40;;
13588;SDS011;6865;52.552;13.434;2024-02-26T01:16:28;10.40;;;8.30;;
13588;SDS011;6865;52.552;13.434;2024-02-26T01:18:55;16.13;;;11.80;;
13588;SDS011;6865;52.552;13.434;2024-02-26T01:21:22;17.47;;;13.67;;
13588;SDS011;6865;52.552;13.434;2024-02-26T01:23:49;16.07;;;13.23;;
13588;SDS011;6865;52.552;13.434;2024-02-26T01:26:15;15.17;;;12.27;;
13588;SDS011;6865;52.552;13.434;2024-02-26T01:28:42;15.80;;;11.30;;
13588;SDS011;6865;52.552;13.434;2024-02-26T01:31:09;11.07;;;8.30;;
13588;SDS011;6865;52.552;13.434;2024-02-26T01:33:36;9.50;;;7.67;;
13588;SDS011;6865;52.552;13.434;2024-02-26T01:36:03;10.77;;;7.60;;
13588;SDS011;6865;52.552;13.434;2024-02-26T01:38:30;11.13;;;7.43;;
13588;SDS011;6865;52.552;13.434;2024-02-26T01:40:57;10.30;;;7.60;;
13588;SDS011;6865;52.552;13.434;2024-02-26T01:43:23;8.93;;;7.77;;
13588;SDS011;6865;52.552;13.434;2024-02-26T01:45:50;11.13;;;7.43;;
13588;SDS011;6865;52.552;13.434;2024-02-26T01:48:17;11.77;;;8.60;;
13588;SDS011;6865;52.552;13.434;2024-02-26T01:50:44;12.77;;;9.03;;
13588;SDS011;6865;52.552;13.434;2024-02-26T01:53:11;13.57;;;9.10;;
13588;SDS011;6865;52.552;13.434;2024-02-26T01:55:38;12.83;;;8.97;;
13588;SDS011;6865;52.552;13.434;2024-02-26T01:58:05;10.43;;;8.03;;
13588;SDS011;6865;52.552;13.434;2024-02-26T02:00:32;10.17;;;8.53;;
13588;SDS011;6865;52.552;13.434;2024-02-26T02:02:59;10.90;;;8.33;;
13588;SDS011;6865;52.552;13.434;2024-02-26T02:05:27;16.17;;;8.93;;
13588;SDS011;6865;52.552;13.434;2024-02-26T02:07:55;11.63;;;9.13;;
13588;SDS011;6865;52.552;13.434;2024-02-26T02:10:21;12.33;;;8.57;;
13588;SDS011;6865;52.552;13.434;2024-02-26T02:12:52;10.17;;;7.60;;
13588;SDS011;6865;52.552;13.434;2024-02-26T02:15:19;11.77;;;8.40;;
13588;SDS011;6865;52.552;13.434;2024-02-26T02:17:46;10.30;;;8.07;;
13588;SDS011;6865;52.552;13.434;2024-02-26T02:20:17;10.43;;;7.77;;
13588;SDS011;6865;52.552;13.434;2024-02-26T02:22:45;12.53;;;8.67;;
13588;SDS011;6865;52.552;13.434;2024-02-26T02:25:12;13.03;;;8.60;;
13588;SDS011;6865;52.552;13.434;2024-02-26T02:27:39;12.50;;;9.10;;
13588;SDS011;6865;52.552;13.434;2024-02-26T02:30:07;11.60;;;8.27;;
13588;SDS011;6865;52.552;13.434;2024-02-26T02:32:35;10.90;;;7.87;;
13588;SDS011;6865;52.552;13.434;2024-02-26T02:35:06;10.53;;;7.23;;
13588;SDS011;6865;52.552;13.434;2024-02-26T02:37:33;12.20;;;7.70;;
13588;SDS011;6865;52.552;13.434;2024-02-26T02:40:00;9.80;;;7.40;;
13588;SDS011;6865;52.552;13.434;2024-02-26T02:42:27;9.33;;;7.07;;
13588;SDS011;6865;52.552;13.434;2024-02-26T02:44:54;7.80;;;6.73;;
13588;SDS011;6865;52.552;13.434;2024-02-26T02:47:20;11.10;;;6.80;;
13588;SDS011;6865;52.552;13.434;2024-02-26T02:49:47;9.80;;;6.57;;
13588;SDS011;6865;52.552;13.434;2024-02-26T02:52:14;9.07;;;6.73;;
13588;SDS011;6865;52.552;13.434;2024-02-26T02:54:40;9.67;;;6.37;;
13588;SDS011;6865;52.552;13.434;2024-02-26T02:57:08;8.00;;;5.97;;
13588;SDS011;6865;52.552;13.434;2024-02-26T02:59:36;9.00;;;6.60;;
13588;SDS011;6865;52.552;13.434;2024-02-26T03:02:03;8.53;;;5.63;;
13588;SDS011;6865;52.552;13.434;2024-02-26T03:04:31;7.57;;;5.53;;
13588;SDS011;6865;52.552;13.434;2024-02-26T03:06:58;6.50;;;5.03;;
13588;SDS011;6865;52.552;13.434;2024-02-26T03:09:25;7.07;;;5.00;;
13588;SDS011;6865;52.552;13.434;2024-02-26T03:11:51;6.57;;;5.17;;
13588;SDS011;6865;52.552;13.434;2024-02-26T03:14:18;6.63;;;4.93;;
13588;SDS011;6865;52.552;13.434;2024-02-26T03:16:45;7.13;;;4.97;;
13588;SDS011;6865;52.552;13.434;2024-02-26T03:19:14;6.83;;;5.13;;
13588;SDS011;6865;52.552;13.434;2024-02-26T03:21:42;7.33;;;4.80;;
13588;SDS011;6865;52.552;13.434;2024-02-26T03:24:09;5.43;;;4.20;;
13588;SDS011;6865;52.552;13.434;2024-02-26T03:26:36;5.77;;;4.90;;
13588;SDS011;6865;52.552;13.434;2024-02-26T03:29:04;6.50;;;4.90;;
13588;SDS011;6865;52.552;13.434;2024-02-26T03:31:31;7.00;;;5.00;;
13588;SDS011;6865;52.552;13.434;2024-02-26T03:33:58;6.53;;;4.70;;
13588;SDS011;6865;52.552;13.434;2024-02-26T03:36:25;6.23;;;4.90;;
13588;SDS011;6865;52.552;13.434;2024-02-26T03:38:52;6.07;;;4.60;;
13588;SDS011;6865;52.552;13.434;2024-02-26T03:41:19;7.50;;;5.07;;
13588;SDS011;6865;52.552;13.434;2024-02-26T03:43:45;7.60;;;5.53;;
13588;SDS011;6865;52.552;13.434;2024-02-26T03:46:12;6.60;;;5.23;;
13588;SDS011;6865;52.552;13.434;2024-02-26T03:48:40;6.47;;;5.20;;
13588;SDS011;6865;52.552;13.434;2024-02-26T03:51:11;8.10;;;4.73;;
13588;SDS011;6865;52.552;13.434;2024-02-26T03:53:37;7.60;;;5.37;;
13588;SDS011;6865;52.552;13.434;2024-02-26T03:56:04;8.57;;;5.37;;
13588;SDS011;6865;52.552;13.434;2024-02-26T03:58:32;8.20;;;5.57;;
13588;SDS011;6865;52.552;13.434;2024-02-26T04:00:59;7.07;;;5.03;;
13588;SDS011;6865;52.552;13.434;2024-02-26T04:03:26;7.97;;;5.70;;
13588;SDS011;6865;52.552;13.434;2024-02-26T04:05:53;8.23;;;4.93;;
13588;SDS011;6865;52.552;13.434;2024-02-26T04:08:20;6.67;;;5.17;;
13588;SDS011;6865;52.552;13.434;2024-02-26T04:10:47;7.70;;;5.60;;
13588;SDS011;6865;52.552;13.434;2024-02-26T04:13:14;6.20;;;5.00;;
13588;SDS011;6865;52.552;13.434;2024-02-26T04:15:41;7.30;;;5.20;;
13588;SDS011;6865;52.552;13.434;2024-02-26T04:18:07;6.87;;;5.00;;
13588;SDS011;6865;52.552;13.434;2024-02-26T04:20:34;9.37;;;5.27;;
13588;SDS011;6865;52.552;13.434;2024-02-26T04:23:02;6.83;;;5.57;;
13588;SDS011;6865;52.552;13.434;2024-02-26T04:25:29;8.17;;;5.17;;
13588;SDS011;6865;52.552;13.434;2024-02-26T04:27:56;6.40;;;5.40;;
13588;SDS011;6865;52.552;13.434;2024-02-26T04:30:23;8.60;;;5.50;;
13588;SDS011;6865;52.552;13.434;2024-02-26T04:32:50;10.37;;;5.80;;
13588;SDS011;6865;52.552;13.434;2024-02-26T04:35:17;9.53;;;6.20;;
13588;SDS011;6865;52.552;13.434;2024-02-26T04:37:44;9.13;;;5.70;;
13588;SDS011;6865;52.552;13.434;2024-02-26T04:40:10;7.07;;;5.47;;
13588;SDS011;6865;52.552;13.434;2024-02-26T04:42:37;7.80;;;5.63;;
13588;SDS011;6865;52.552;13.434;2024-02-26T04:45:04;8.73;;;5.80;;
13588;SDS011;6865;52.552;13.434;2024-02-26T04:47:33;6.40;;;5.50;;
13588;SDS011;6865;52.552;13.434;2024-02-26T04:49:59;9.63;;;6.13;;
13588;SDS011;6865;52.552;13.434;2024-02-26T04:52:26;9.53;;;6.07;;
13588;SDS011;6865;52.552;13.434;2024-02-26T04:54:53;7.03;;;5.73;;
13588;SDS011;6865;52.552;13.434;2024-02-26T04:57:21;9.43;;;6.83;;
13588;SDS011;6865;52.552;13.434;2024-02-26T04:59:48;10.73;;;7.07;;
13588;SDS011;6865;52.552;13.434;2024-02-26T05:02:14;9.80;;;6.33;;
13588;SDS011;6865;52.552;13.434;2024-02-26T05:04:42;8.07;;;5.93;;
13588;SDS011;6865;52.552;13.434;2024-02-26T05:07:08;10.13;;;5.70;;
13588;SDS011;6865;52.552;13.434;2024-02-26T05:09:35;9.47;;;6.47;;
13588;SDS011;6865;52.552;13.434;2024-02-26T05:12:02;8.57;;;6.20;;
13588;SDS011;6865;52.552;13.434;2024-02-26T05:14:30;10.30;;;6.67;;
13588;SDS011;6865;52.552;13.434;2024-02-26T05:16:56;8.30;;;6.70;;
13588;SDS011;6865;52.552;13.434;2024-02-26T05:19:23;8.73;;;6.67;;
13588;SDS011;6865;52.552;13.434;2024-02-26T05:21:50;8.80;;;6.53;;
13588;SDS011;6865;52.552;13.434;2024-02-26T05:24:17;9.07;;;7.30;;
13588;SDS011;6865;52.552;13.434;2024-02-26T05:26:45;9.60;;;6.93;;
13588;SDS011;6865;52.552;13.434;2024-02-26T05:29:12;10.27;;;6.20;;
13588;SDS011;6865;52.552;13.434;2024-02-26T05:31:39;9.33;;;6.87;;
13588;SDS011;6865;52.552;13.434;2024-02-26T05:34:08;8.30;;;6.90;;
13588;SDS011;6865;52.552;13.434;2024-02-26T05:36:35;9.13;;;7.13;;
13588;SDS011;6865;52.552;13.434;2024-02-26T05:39:02;10.17;;;7.77;;
13588;SDS011;6865;52.552;13.434;2024-02-26T05:41:30;10.57;;;7.63;;
13588;SDS011;6865;52.552;13.434;2024-02-26T05:43:58;12.57;;;8.37;;
13588;SDS011;6865;52.552;13.434;2024-02-26T05:46:25;11.13;;;8.40;;
13588;SDS011;6865;52.552;13.434;2024-02-26T05:48:53;10.07;;;8.17;;
13588;SDS011;6865;52.552;13.434;2024-02-26T05:51:20;10.70;;;7.77;;
13588;SDS011;6865;52.552;13.434;2024-02-26T05:53:47;10.30;;;7.93;;
13588;SDS011;6865;52.552;13.434;2024-02-26T05:56:20;11.87;;;9.00;;
13588;SDS011;6865;52.552;13.434;2024-02-26T05:58:48;17.03;;;8.00;;
13588;SDS011;6865;52.552;13.434;2024-02-26T06:01:17;15.20;;;9.20;;
13588;SDS011;6865;52.552;13.434;2024-02-26T06:03:44;15.73;;;10.27;;
13588;SDS011;6865;52.552;13.434;2024-02-26T06:06:11;19.07;;;11.50;;
13588;SDS011;6865;52.552;13.434;2024-02-26T06:08:39;19.57;;;11.77;;
13588;SDS011;6865;52.552;13.434;2024-02-26T06:11:06;22.20;;;12.63;;
13588;SDS011;6865;52.552;13.434;2024-02-26T06:13:33;20.27;;;11.73;;
13588;SDS011;6865;52.552;13.434;2024-02-26T06:16:01;20.07;;;12.47;;
13588;SDS011;6865;52.552;13.434;2024-02-26T06:18:28;21.33;;;11.43;;
13588;SDS011;6865;52.552;13.434;2024-02-26T06:20:55;19.83;;;12.03;;
13588;SDS011;6865;52.552;13.434;2024-02-26T06:23:22;20.63;;;11.53;;
13588;SDS011;6865;52.552;13.434;2024-02-26T06:25:49;17.50;;;11.53;;
13588;SDS011;6865;52.552;13.434;2024-02-26T06:28:15;18.93;;;11.73;;
13588;SDS011;6865;52.552;13.434;2024-02-26T06:30:42;17.30;;;10.90;;
13588;SDS011;6865;52.552;13.434;2024-02-26T06:33:09;16.47;;;10.70;;
13588;SDS011;6865;52.552;13.434;2024-02-26T06:35:37;15.60;;;10.63;;
13588;SDS011;6865;52.552;13.434;2024-02-26T06:38:04;20.97;;;11.40;;
13588;SDS011;6865;52.552;13.434;2024-02-26T06:40:30;19.10;;;11.60;;
13588;SDS011;6865;52.552;13.434;2024-02-26T06:42:57;18.70;;;11.73;;
13588;SDS011;6865;52.552;13.434;2024-02-26T06:45:24;21.47;;;12.27;;
13588;SDS011;6865;52.552;13.434;2024-02-26T06:47:51;16.77;;;10.70;;
13588;SDS011;6865;52.552;13.434;2024-02-26T06:50:18;18.10;;;11.13;;
13588;SDS011;6865;52.552;13.434;2024-02-26T06:52:44;18.73;;;10.77;;
13588;SDS011;6865;52.552;13.434;2024-02-26T06:55:14;20.93;;;12.07;;
13588;SDS011;6865;52.552;13.434;2024-02-26T06:57:40;20.17;;;12.37;;
13588;SDS011;6865;52.552;13.434;2024-02-26T07:00:07;18.40;;;12.90;;
13588;SDS011;6865;52.552;13.434;2024-02-26T07:02:34;19.17;;;11.57;;
13588;SDS011;6865;52.552;13.434;2024-02-26T07:05:05;25.23;;;12.57;;
13588;SDS011;6865;52.552;13.434;2024-02-26T07:07:32;19.27;;;11.90;;
13588;SDS011;6865;52.552;13.434;2024-02-26T07:09:59;17.30;;;11.50;;
13588;SDS011;6865;52.552;13.434;2024-02-26T07:12:26;15.37;;;11.17;;
13588;SDS011;6865;52.552;13.434;2024-02-26T07:14:53;19.83;;;11.73;;
13588;SDS011;6865;52.552;13.434;2024-02-26T07:17:19;17.30;;;11.37;;
13588;SDS011;6865;52.552;13.434;2024-02-26T07:19:46;14.70;;;11.07;;
13588;SDS011;6865;52.552;13.434;2024-02-26T07:22:13;14.13;;;10.53;;
13588;SDS011;6865;52.552;13.434;2024-02-26T07:24:41;15.23;;;10.63;;
13588;SDS011;6865;52.552;13.434;2024-02-26T07:27:07;15.50;;;10.93;;
13588;SDS011;6865;52.552;13.434;2024-02-26T07:29:34;14.83;;;10.63;;
13588;SDS011;6865;52.552;13.434;2024-02-26T07:32:01;18.80;;;10.43;;
13588;SDS011;6865;52.552;13.434;2024-02-26T07:34:28;16.10;;;10.97;;
13588;SDS011;6865;52.552;13.434;2024-02-26T07:36:56;12.83;;;10.43;;
13588;SDS011;6865;52.552;13.434;2024-02-26T07:39:23;14.10;;;11.27;;
13588;SDS011;6865;52.552;13.434;2024-02-26T07:41:50;16.97;;;11.23;;
13588;SDS011;6865;52.552;13.434;2024-02-26T07:44:19;16.10;;;12.13;;
13588;SDS011;6865;52.552;13.434;2024-02-26T07:46:46;15.13;;;11.43;;
13588;SDS011;6865;52.552;13.434;2024-02-26T07:49:13;16.00;;;11.17;;
13588;SDS011;6865;52.552;13.434;2024-02-26T07:51:40;15.90;;;12.33;;
13588;SDS011;6865;52.552;13.434;2024-02-26T07:54:07;15.23;;;11.60;;
13588;SDS011;6865;52.552;13.434;2024-02-26T07:56:34;16.13;;;11.60;;
13588;SDS011;6865;52.552;13.434;2024-02-26T07:59:01;16.73;;;12.07;;
13588;SDS011;6865;52.552;13.434;2024-02-26T08:01:28;19.10;;;11.80;;
13588;SDS011;6865;52.552;13.434;2024-02-26T08:03:55;17.20;;;12.30;;
13588;SDS011;6865;52.552;13.434;2024-02-26T08:06:22;15.03;;;11.50;;
13588;SDS011;6865;52.552;13.434;2024-02-26T08:08:49;17.97;;;12.33;;
13588;SDS011;6865;52.552;13.434;2024-02-26T08:11:16;18.07;;;12.40;;
13588;SDS011;6865;52.552;13.434;2024-02-26T08:13:43;17.07;;;12.13;;
13588;SDS011;6865;52.552;13.434;2024-02-26T08:16:10;16.90;;;12.23;;
13588;SDS011;6865;52.552;13.434;2024-02-26T08:18:36;17.23;;;12.00;;
13588;SDS011;6865;52.552;13.434;2024-02-26T08:21:03;14.63;;;11.20;;
13588;SDS011;6865;52.552;13.434;2024-02-26T08:23:30;19.67;;;14.30;;
13588;SDS011;6865;52.552;13.434;2024-02-26T08:25:57;29.40;;;17.50;;
13588;SDS011;6865;52.552;13.434;2024-02-26T08:28:24;19.43;;;13.93;;
13588;SDS011;6865;52.552;13.434;2024-02-26T08:30:51;20.27;;;14.43;;
13588;SDS011;6865;52.552;13.434;2024-02-26T08:33:18;16.33;;;12.40;;
13588;SDS011;6865;52.552;13.434;2024-02-26T08:35:45;15.93;;;11.37;;
13588;SDS011;6865;52.552;13.434;2024-02-26T08:38:11;15.13;;;11.77;;
13588;SDS011;6865;52.552;13.434;2024-02-26T08:40:38;17.63;;;11.50;;
13588;SDS011;6865;52.552;13.434;2024-02-26T08:43:05;15.80;;;11.83;;
13588;SDS011;6865;52.552;13.434;2024-02-26T08:45:31;13.57;;;11.23;;
13588;SDS011;6865;52.552;13.434;2024-02-26T08:47:58;15.80;;;12.10;;
13588;SDS011;6865;52.552;13.434;2024-02-26T08:50:25;16.23;;;12.00;;
13588;SDS011;6865;52.552;13.434;2024-02-26T08:52:53;18.80;;;11.87;;
13588;SDS011;6865;52.552;13.434;2024-02-26T08:55:19;17.87;;;12.33;;
13588;SDS011;6865;52.552;13.434;2024-02-26T08:57:47;15.17;;;12.10;;
13588;SDS011;6865;52.552;13.434;2024-02-26T09:00:14;14.57;;;11.80;;
13588;SDS011;6865;52.552;13.434;2024-02-26T09:02:44;18.43;;;11.63;;
13588;SDS011;6865;52.552;13.434;2024-02-26T09:05:11;18.60;;;11.30;;
13588;SDS011;6865;52.552;13.434;2024-02-26T09:07:37;15.80;;;11.73;;
13588;SDS011;6865;52.552;13.434;2024-02-26T09:10:05;16.87;;;11.70;;
13588;SDS011;6865;52.552;13.434;2024-02-26T09:12:34;15.73;;;11.80;;
13588;SDS011;6865;52.552;13.434;2024-02-26T09:15:01;16.17;;;12.07;;
13588;SDS011;6865;52.552;13.434;2024-02-26T09:17:28;14.47;;;11.60;;
13588;SDS011;6865;52.552;13.434;2024-02-26T09:19:54;30.30;;;17.00;;
13588;SDS011;6865;52.552;13.434;2024-02-26T09:22:21;18.13;;;12.83;;
13588;SDS011;6865;52.552;13.434;2024-02-26T09:24:48;22.90;;;15.50;;
13588;SDS011;6865;52.552;13.434;2024-02-26T09:27:17;19.80;;;15.13;;
13588;SDS011;6865;52.552;13.434;2024-02-26T09:29:44;17.93;;;12.27;;
13588;SDS011;6865;52.552;13.434;2024-02-26T09:32:11;13.83;;;10.80;;
13588;SDS011;6865;52.552;13.434;2024-02-26T09:34:39;15.73;;;11.37;;
13588;SDS011;6865;52.552;13.434;2024-02-26T09:37:07;13.87;;;10.97;;
13588;SDS011;6865;52.552;13.434;2024-02-26T09:39:46;14.10;;;10.73;;
13588;SDS011;6865;52.552;13.434;2024-02-26T09:42:13;17.00;;;12.80;;
13588;SDS011;6865;52.552;13.434;2024-02-26T09:44:42;17.17;;;12.37;;
13588;SDS011;6865;52.552;13.434;2024-02-26T09:47:10;16.20;;;11.70;;
13588;SDS011;6865;52.552;13.434;2024-02-26T09:49:43;24.77;;;16.17;;
13588;SDS011;6865;52.552;13.434;2024-02-26T09:52:11;15.50;;;12.17;;
13588;SDS011;6865;52.552;13.434;2024-02-26T09:54:41;15.77;;;11.73;;
13588;SDS011;6865;52.552;13.434;2024-02-26T09:57:09;16.57;;;11.80;;
13588;SDS011;6865;52.552;13.434;2024-02-26T09:59:42;21.40;;;12.43;;
13588;SDS011;6865;52.552;13.434;2024-02-26T10:02:11;14.57;;;11.50;;
13588;SDS011;6865;52.552;13.434;2024-02-26T10:04:39;16.27;;;12.00;;
13588;SDS011;6865;52.552;13.434;2024-02-26T10:07:11;15.20;;;10.90;;
13588;SDS011;6865;52.552;13.434;2024-02-26T10:09:39;15.03;;;11.60;;
13588;SDS011;6865;52.552;13.434;2024-02-26T10:12:08;15.43;;;12.50;;
13588;SDS011;6865;52.552;13.434;2024-02-26T10:14:37;14.53;;;11.10;;
13588;SDS011;6865;52.552;13.434;2024-02-26T10:17:05;13.57;;;10.17;;
13588;SDS011;6865;52.552;13.434;2024-02-26T10:19:35;14.13;;;11.10;;
13588;SDS011;6865;52.552;13.434;2024-02-26T10:22:04;14.00;;;10.40;;
13588;SDS011;6865;52.552;13.434;2024-02-26T10:24:31;13.47;;;10.00;;
13588;SDS011;6865;52.552;13.434;2024-02-26T10:26:59;13.07;;;10.20;;
13588;SDS011;6865;52.552;13.434;2024-02-26T10:29:28;12.47;;;9.60;;
13588;SDS011;6865;52.552;13.434;2024-02-26T10:31:55;11.80;;;9.33;;
13588;SDS011;6865;52.552;13.434;2024-02-26T10:34:22;16.20;;;9.80;;
13588;SDS011;6865;52.552;13.434;2024-02-26T10:36:50;11.53;;;9.43;;
13588;SDS011;6865;52.552;13.434;2024-02-26T10:39:20;12.67;;;9.70;;
13588;SDS011;6865;52.552;13.434;2024-02-26T10:41:48;10.87;;;8.43;;
13588;SDS011;6865;52.552;13.434;2024-02-26T10:44:16;11.17;;;8.43;;
13588;SDS011;6865;52.552;13.434;2024-02-26T10:46:46;12.10;;;8.67;;
13588;SDS011;6865;52.552;13.434;2024-02-26T10:49:15;12.97;;;9.80;;
13588;SDS011;6865;52.552;13.434;2024-02-26T10:51:52;13.37;;;9.77;;
13588;SDS011;6865;52.552;13.434;2024-02-26T10:54:28;11.00;;;8.87;;
13588;SDS011;6865;52.552;13.434;2024-02-26T10:56:56;13.33;;;9.90;;
13588;SDS011;6865;52.552;13.434;2024-02-26T10:59:25;10.93;;;8.57;;
13588;SDS011;6865;52.552;13.434;2024-02-26T11:01:52;14.07;;;9.10;;
13588;SDS011;6865;52.552;13.434;2024-02-26T11:04:22;12.53;;;9.50;;
13588;SDS011;6865;52.552;13.434;2024-02-26T11:06:49;12.93;;;9.57;;
13588;SDS011;6865;52.552;13.434;2024-02-26T11:09:16;10.67;;;8.37;;
13588;SDS011;6865;52.552;13.434;2024-02-26T11:11:45;12.40;;;8.70;;
13588;SDS011;6865;52.552;13.434;2024-02-26T11:14:14;12.40;;;9.23;;
13588;SDS011;6865;52.552;13.434;2024-02-26T11:16:41;14.03;;;9.77;;
13588;SDS011;6865;52.552;13.434;2024-02-26T11:19:09;11.83;;;8.63;;
13588;SDS011;6865;52.552;13.434;2024-02-26T11:21:38;12.93;;;9.53;;
13588;SDS011;6865;52.552;13.434;2024-02-26T11:24:07;13.07;;;9.77;;
13588;SDS011;6865;52.552;13.434;2024-02-26T11:26:39;13.97;;;10.60;;
13588;SDS011;6865;52.552;13.434;2024-02-26T11:29:15;12.17;;;10.00;;
13588;SDS011;6865;52.552;13.434;2024-02-26T11:31:44;12.90;;;9.60;;
13588;SDS011;6865;52.552;13.434;2024-02-26T11:34:11;12.90;;;10.43;;
13588;SDS011;6865;52.552;13.434;2024-02-26T11:36:38;14.30;;;10.27;;
13588;SDS011;6865;52.552;13.434;2024-02-26T11:39:06;14.57;;;10.63;;
13588;SDS011;6865;52.552;13.434;2024-02-26T11:41:34;13.27;;;10.27;;
13588;SDS011;6865;52.552;13.434;2024-02-26T11:44:03;13.27;;;10.37;;
13588;SDS011;6865;52.552;13.434;2024-02-26T11:46:39;12.70;;;10.60;;
13588;SDS011;6865;52.552;13.434;2024-02-26T11:51:53;13.60;;;11.07;;
13588;SDS011;6865;52.552;13.434;2024-02-26T11:57:29;17.13;;;11.47;;
13588;SDS011;6865;52.552;13.434;2024-02-26T12:00:15;13.50;;;11.20;;
13588;SDS011;6865;52.552;13.434;2024-02-26T12:02:47;15.30;;;11.43;;
13588;SDS011;6865;52.552;13.434;2024-02-26T12:05:19;14.53;;;11.23;;
13588;SDS011;6865;52.552;13.434;2024-02-26T12:07:55;15.63;;;10.77;;
13588;SDS011;6865;52.552;13.434;2024-02-26T12:10:38;15.60;;;11.33;;
13588;SDS011;6865;52.552;13.434;2024-02-26T12:13:10;16.67;;;11.13;;
13588;SDS011;6865;52.552;13.434;2024-02-26T12:15:46;13.47;;;10.97;;
13588;SDS011;6865;52.552;13.434;2024-02-26T12:18:22;13.87;;;10.50;;
13588;SDS011;6865;52.552;13.434;2024-02-26T12:20:59;15.67;;;10.70;;
13588;SDS011;6865;52.552;13.434;2024-02-26T12:23:30;16.33;;;10.80;;
13588;SDS011;6865;52.552;13.434;2024-02-26T12:26:00;13.27;;;10.80;;
13588;SDS011;6865;52.552;13.434;2024-02-26T12:28:32;14.13;;;11.00;;
13588;SDS011;6865;52.552;13.434;2024-02-26T12:30:59;13.67;;;10.07;;
13588;SDS011;6865;52.552;13.434;2024-02-26T12:33:27;12.87;;;10.70;;
13588;SDS011;6865;52.552;13.434;2024-02-26T12:35:55;12.67;;;9.10;;
13588;SDS011;6865;52.552;13.434;2024-02-26T12:38:22;10.83;;;8.80;;
13588;SDS011;6865;52.552;13.434;2024-02-26T12:40:50;13.40;;;8.83;;
13588;SDS011;6865;52.552;13.434;2024-02-26T12:43:17;10.47;;;8.10;;
13588;SDS011;6865;52.552;13.434;2024-02-26T12:45:44;12.27;;;8.67;;
13588;SDS011;6865;52.552;13.434;2024-02-26T12:48:14;10.90;;;8.17;;
13588;SDS011;6865;52.552;13.434;2024-02-26T12:50:44;10.97;;;8.00;;
13588;SDS011;6865;52.552;13.434;2024-02-26T12:53:13;10.00;;;7.47;;
13588;SDS011;6865;52.552;13.434;2024-02-26T12:55:40;9.00;;;6.70;;
13588;SDS011;6865;52.552;13.434;2024-02-26T12:58:08;9.60;;;7.17;;
13588;SDS011;6865;52.552;13.434;2024-02-26T13:00:35;9.00;;;7.13;;
13588;SDS011;6865;52.552;13.434;2024-02-26T13:03:03;10.07;;;7.10;;
13588;SDS011;6865;52.552;13.434;2024-02-26T13:05:30;7.50;;;6.13;;
13588;SDS011;6865;52.552;13.434;2024-02-26T13:07:57;8.57;;;6.10;;
13588;SDS011;6865;52.552;13.434;2024-02-26T13:10:24;7.40;;;5.83;;
13588;SDS011;6865;52.552;13.434;2024-02-26T13:12:51;7.27;;;5.77;;
13588;SDS011;6865;52.552;13.434;2024-02-26T13:15:19;8.30;;;5.80;;
13588;SDS011;6865;52.552;13.434;2024-02-26T13:17:47;7.67;;;5.50;;
13588;SDS011;6865;52.552;13.434;2024-02-26T13:23:11;7.57;;;5.77;;
13588;SDS011;6865;52.552;13.434;2024-02-26T13:25:39;7.13;;;5.17;;
13588;SDS011;6865;52.552;13.434;2024-02-26T13:28:17;7.23;;;5.30;;
13588;SDS011;6865;52.552;13.434;2024-02-26T13:30:52;9.20;;;5.20;;
13588;SDS011;6865;52.552;13.434;2024-02-26T13:33:20;9.33;;;5.50;;
13588;SDS011;6865;52.552;13.434;2024-02-26T13:35:47;6.47;;;4.73;;
13588;SDS011;6865;52.552;13.434;2024-02-26T13:38:14;5.90;;;4.80;;
13588;SDS011;6865;52.552;13.434;2024-02-26T13:40:40;6.37;;;3.90;;
13588;SDS011;6865;52.552;13.434;2024-02-26T13:43:07;5.87;;;3.87;;
13588;SDS011;6865;52.552;13.434;2024-02-26T13:45:34;4.97;;;3.90;;
13588;SDS011;6865;52.552;13.434;2024-02-26T13:48:03;6.83;;;4.10;;
13588;SDS011;6865;52.552;13.434;2024-02-26T13:50:31;5.97;;;4.40;;
13588;SDS011;6865;52.552;13.434;2024-02-26T13:52:58;5.97;;;4.10;;
13588;SDS011;6865;52.552;13.434;2024-02-26T13:55:25;5.33;;;4.50;;
13588;SDS011;6865;52.552;13.434;2024-02-26T13:57:54;6.83;;;4.50;;
13588;SDS011;6865;52.552;13.434;2024-02-26T14:00:23;6.23;;;4.60;;
13588;SDS011;6865;52.552;13.434;2024-02-26T14:02:51;5.80;;;4.17;;
13588;SDS011;6865;52.552;13.434;2024-02-26T14:05:18;6.10;;;4.60;;
13588;SDS011;6865;52.552;13.434;2024-02-26T14:07:45;6.13;;;4.77;;
13588;SDS011;6865;52.552;13.434;2024-02-26T14:10:17;7.73;;;4.70;;
13588;SDS011;6865;52.552;13.434;2024-02-26T14:12:43;9.70;;;4.57;;
13588;SDS011;6865;52.552;13.434;2024-02-26T14:15:10;6.77;;;5.10;;
13588;SDS011;6865;52.552;13.434;2024-02-26T14:17:37;7.60;;;4.93;;
13588;SDS011;6865;52.552;13.434;2024-02-26T14:20:04;8.00;;;5.07;;
13588;SDS011;6865;52.552;13.434;2024-02-26T14:22:34;7.23;;;5.10;;
13588;SDS011;6865;52.552;13.434;2024-02-26T14:25:01;7.20;;;5.37;;
13588;SDS011;6865;52.552;13.434;2024-02-26T14:27:27;7.37;;;4.97;;
13588;SDS011;6865;52.552;13.434;2024-02-26T14:29:58;7.63;;;5.87;;
13588;SDS011;6865;52.552;13.434;2024-02-26T14:32:24;7.50;;;4.97;;
13588;SDS011;6865;52.552;13.434;2024-02-26T14:34:51;10.53;;;5.77;;
13588;SDS011;6865;52.552;13.434;2024-02-26T14:37:18;7.03;;;5.60;;
13588;SDS011;6865;52.552;13.434;2024-02-26T14:39:45;7.20;;;5.67;;
13588;SDS011;6865;52.552;13.434;2024-02-26T14:42:13;8.20;;;6.33;;
13588;SDS011;6865;52.552;13.434;2024-02-26T14:44:44;10.17;;;6.13;;